createdAt,value
2022-09-04T00:00:43.329Z,26.42
2022-09-04T00:05:51.799Z,26.70
2022-09-04T00:10:52.660Z,28.30
2022-09-04T00:15:52.950Z,25.65
2022-09-04T00:20:57.820Z,26.67
2022-09-04T00:26:23.281Z,29.45
2022-09-04T00:31:20.147Z,30.35
2022-09-04T00:36:40.148Z,28.70
2022-09-04T00:41:56.218Z,28.55
2022-09-04T00:47:14.165Z,28.52
2022-09-04T00:52:45.893Z,27.25
2022-09-04T00:57:58.104Z,161.30
2022-09-04T01:03:06.728Z,169.45
2022-09-04T01:08:24.675Z,40.90
2022-09-04T01:13:25.877Z,28.65
2022-09-04T01:18:34.108Z,28.90
2022-09-04T01:23:32.526Z,30.30
2022-09-04T01:28:47.862Z,28.02
2022-09-04T01:34:07.716Z,30.75
2022-09-04T01:39:03.579Z,32.53
2022-09-04T01:43:57.399Z,30.90
2022-09-04T01:49:12.084Z,28.75
2022-09-04T01:54:19.644Z,30.75
2022-09-04T01:59:57.813Z,26.98
2022-09-04T02:05:06.330Z,27.45
2022-09-04T02:10:26.755Z,26.02
2022-09-04T02:15:22.906Z,25.88
2022-09-04T02:20:28.245Z,22.58
2022-09-04T02:25:53.525Z,27.27
2022-09-04T02:31:15.334Z,33.08
2022-09-04T02:36:14.135Z,27.73
2022-09-04T02:41:56.263Z,25.83
2022-09-04T02:47:59.389Z,28.65
2022-09-04T02:53:05.747Z,28.27
2022-09-04T02:58:15.534Z,27.00
2022-09-04T03:03:41.672Z,27.02
2022-09-04T03:08:54.076Z,25.42
2022-09-04T03:14:13.040Z,24.88
2022-09-04T03:19:22.453Z,24.10
2022-09-04T03:24:35.066Z,26.10
2022-09-04T03:29:31.317Z,27.50
2022-09-04T03:34:49.011Z,28.52
2022-09-04T03:40:16.084Z,27.08
2022-09-04T03:46:15.022Z,28.20
2022-09-04T03:51:18.552Z,23.67
2022-09-04T03:56:13.781Z,22.90
2022-09-04T04:01:31.789Z,26.23
2022-09-04T04:06:36.148Z,26.52
2022-09-04T04:11:48.441Z,61.20
2022-09-04T04:17:03.532Z,37.43
2022-09-04T04:22:15.571Z,26.83
2022-09-04T04:27:23.602Z,29.83
2022-09-04T04:32:44.921Z,29.38
2022-09-04T04:38:28.716Z,22.70
2022-09-04T04:44:03.253Z,27.73
2022-09-04T04:49:40.662Z,25.15
2022-09-04T04:55:19.297Z,24.38
2022-09-04T05:00:26.737Z,22.42
2022-09-04T05:05:41.814Z,37.50
2022-09-04T05:10:45.406Z,24.52
2022-09-04T05:16:09.879Z,25.83
2022-09-04T05:21:24.342Z,26.70
2022-09-04T05:26:25.108Z,21.58
2022-09-04T05:31:18.176Z,25.58
2022-09-04T05:36:34.779Z,24.92
2022-09-04T05:41:51.004Z,28.88
2022-09-04T05:47:12.728Z,30.08
2022-09-04T05:52:15.966Z,27.88
2022-09-04T05:57:28.247Z,28.27
2022-09-04T06:02:30.018Z,27.33
2022-09-04T06:07:29.693Z,34.60
2022-09-04T06:12:35.422Z,29.60
2022-09-04T06:18:04.309Z,28.30
2022-09-04T06:23:30.677Z,25.20
2022-09-04T06:28:24.474Z,25.25
2022-09-04T06:33:43.573Z,23.98
2022-09-04T06:39:01.154Z,22.80
2022-09-04T06:44:02.197Z,23.58
2022-09-04T06:49:07.353Z,22.23
2022-09-04T06:54:28.806Z,25.23
2022-09-04T06:59:50.284Z,24.17
2022-09-04T07:05:01.814Z,18.88
2022-09-04T07:10:16.253Z,19.05
2022-09-04T07:15:28.218Z,21.35
2022-09-04T07:20:50.234Z,20.58
2022-09-04T07:26:21.495Z,18.35
2022-09-04T07:31:57.309Z,15.43
2022-09-04T07:37:02.426Z,16.10
2022-09-04T07:42:33.214Z,14.32
2022-09-04T07:47:36.183Z,12.98
2022-09-04T07:52:45.721Z,12.73
2022-09-04T07:58:09.236Z,11.68
2022-09-04T08:03:25.818Z,11.77
2022-09-04T08:08:32.023Z,14.02
2022-09-04T08:13:43.513Z,11.15
2022-09-04T08:19:04.733Z,9.15
2022-09-04T08:24:12.903Z,14.73
2022-09-04T08:29:32.418Z,10.52
2022-09-04T08:34:41.493Z,9.15
2022-09-04T08:39:51.353Z,8.13
2022-09-04T08:45:26.068Z,10.73
2022-09-04T08:50:43.049Z,9.65
2022-09-04T08:56:10.933Z,14.88
2022-09-04T09:01:10.356Z,15.18
2022-09-04T09:06:33.866Z,16.13
2022-09-04T09:11:33.051Z,12.40
2022-09-04T09:16:52.599Z,19.17
2022-09-04T09:21:51.237Z,14.15
2022-09-04T09:27:11.901Z,15.77
2022-09-04T09:32:34.840Z,11.88
2022-09-04T09:42:38.300Z,11.23
2022-09-04T09:47:49.695Z,11.77
2022-09-04T09:53:01.276Z,16.63
2022-09-04T09:58:15.255Z,13.95
2022-09-04T10:03:27.036Z,12.30
2022-09-04T10:08:36.409Z,16.38
2022-09-04T10:13:53.461Z,14.30
2022-09-04T10:19:09.659Z,11.88
2022-09-04T10:24:27.572Z,10.93
2022-09-04T10:29:45.778Z,9.32
2022-09-04T10:34:59.623Z,14.00
2022-09-04T10:40:29.367Z,6.85
2022-09-04T10:45:48.752Z,10.15
2022-09-04T10:51:04.760Z,11.70
2022-09-04T10:56:04.403Z,7.28
2022-09-04T11:01:31.171Z,7.45
2022-09-04T11:06:53.940Z,6.38
2022-09-04T11:12:05.492Z,9.38
2022-09-04T11:17:14.129Z,10.95
2022-09-04T11:22:17.909Z,9.52
2022-09-04T11:27:45.462Z,7.38
2022-09-04T11:33:16.979Z,7.03
2022-09-04T11:38:17.941Z,8.73
2022-09-04T11:43:14.803Z,7.55
2022-09-04T11:48:19.860Z,12.27
2022-09-04T11:53:50.813Z,8.10
2022-09-04T11:59:06.978Z,8.32
2022-09-04T12:04:26.653Z,8.95
2022-09-04T12:09:50.174Z,5.43
2022-09-04T12:15:07.527Z,7.45
2022-09-04T12:20:29.824Z,7.07
2022-09-04T12:26:01.709Z,6.90
2022-09-04T12:30:57.483Z,7.43
2022-09-04T12:36:23.896Z,5.78
2022-09-04T12:41:24.791Z,6.13
2022-09-04T12:46:30.038Z,6.15
2022-09-04T12:51:25.591Z,6.85
2022-09-04T12:56:49.051Z,5.63
2022-09-04T13:02:13.249Z,8.15
2022-09-04T13:07:41.494Z,4.18
2022-09-04T13:13:28.440Z,3.70
2022-09-04T13:18:54.781Z,3.95
2022-09-04T13:23:50.872Z,5.63
2022-09-04T13:29:13.207Z,4.88
2022-09-04T13:34:27.927Z,5.72
2022-09-04T13:40:02.026Z,4.30
2022-09-04T13:45:02.828Z,5.78
2022-09-04T13:50:12.886Z,7.95
2022-09-04T13:55:43.921Z,7.07
2022-09-04T14:01:07.733Z,5.50
2022-09-04T14:06:03.767Z,6.63
2022-09-04T14:11:22.906Z,5.82
2022-09-04T14:16:17.010Z,4.90
2022-09-04T14:21:30.973Z,6.40
2022-09-04T14:26:33.469Z,5.95
2022-09-04T14:31:34.180Z,5.85
2022-09-04T14:36:36.282Z,4.30
2022-09-04T14:41:36.184Z,5.43
2022-09-04T14:46:35.588Z,4.63
2022-09-04T14:51:29.207Z,6.38
2022-09-04T14:56:46.019Z,4.50
2022-09-04T15:02:31.262Z,4.85
2022-09-04T15:07:42.651Z,5.07
2022-09-04T15:12:38.867Z,4.95
2022-09-04T15:17:33.250Z,6.35
2022-09-04T15:22:50.047Z,6.53
2022-09-04T15:28:02.549Z,5.43
2022-09-04T15:33:08.247Z,5.97
2022-09-04T15:38:23.331Z,5.60
2022-09-04T15:43:16.767Z,4.22
2022-09-04T15:48:39.219Z,3.75
2022-09-04T15:53:37.332Z,6.05
2022-09-04T15:59:16.633Z,4.80
2022-09-04T16:04:37.077Z,6.28
2022-09-04T16:09:49.850Z,7.63
2022-09-04T16:14:56.378Z,6.03
2022-09-04T16:20:21.075Z,6.30
2022-09-04T16:25:31.073Z,6.20
2022-09-04T16:30:39.236Z,3.83
2022-09-04T16:35:36.788Z,5.68
2022-09-04T16:40:32.378Z,4.97
2022-09-04T16:45:34.014Z,4.90
2022-09-04T16:50:36.569Z,5.68
2022-09-04T16:55:37.129Z,4.70
2022-09-04T17:01:13.602Z,5.22
2022-09-04T17:06:23.989Z,5.18
2022-09-04T17:11:42.793Z,5.45
2022-09-04T17:16:53.038Z,7.65
2022-09-04T17:27:56.931Z,7.32
2022-09-04T17:29:19.069Z,5.88
2022-09-04T17:40:43.843Z,7.93
2022-09-04T17:40:48.978Z,6.93
2022-09-04T17:45:48.624Z,6.63
2022-09-04T17:50:58.394Z,6.40
2022-09-04T17:55:57.144Z,5.53
2022-09-04T18:01:14.136Z,6.65
2022-09-04T18:06:30.615Z,9.43
2022-09-04T18:12:05.465Z,13.55
2022-09-04T18:17:12.626Z,17.90
2022-09-04T18:22:33.658Z,10.50
2022-09-04T18:28:11.405Z,7.85
2022-09-04T18:37:26.042Z,7.78
2022-09-04T18:39:09.100Z,8.32
2022-09-04T18:50:21.702Z,5.63
2022-09-04T18:50:53.076Z,6.22
2022-09-04T18:55:15.234Z,8.40
2022-09-04T19:00:14.334Z,7.07
2022-09-04T19:05:14.551Z,5.93
2022-09-04T19:10:23.132Z,10.48
2022-09-04T19:15:36.789Z,11.35
2022-09-04T19:20:45.863Z,7.88
2022-09-04T19:25:44.152Z,5.82
2022-09-04T19:30:59.905Z,9.52
2022-09-04T19:46:14.378Z,7.78
2022-09-04T19:46:28.186Z,7.70
2022-09-04T19:53:24.359Z,7.28
2022-09-04T19:57:32.489Z,7.70
2022-09-04T20:02:44.227Z,7.43
2022-09-04T20:07:41.485Z,8.27
2022-09-04T20:12:51.032Z,11.63
2022-09-04T20:18:04.027Z,7.88
2022-09-04T20:23:34.199Z,8.02
2022-09-04T20:29:09.816Z,7.38
2022-09-04T20:34:21.889Z,7.65
2022-09-04T20:39:34.559Z,10.90
2022-09-04T20:44:45.862Z,7.95
2022-09-04T20:52:53.303Z,6.38
2022-09-04T20:55:35.920Z,8.27
2022-09-04T21:03:10.954Z,7.32
2022-09-04T21:06:04.342Z,9.25
2022-09-04T21:11:03.795Z,7.57
2022-09-04T21:16:36.713Z,7.70
2022-09-04T21:21:43.645Z,9.90
2022-09-04T21:27:22.903Z,11.38
2022-09-04T21:32:46.931Z,10.38
2022-09-04T21:38:19.361Z,8.77
2022-09-04T21:43:25.017Z,8.02
2022-09-04T21:49:07.915Z,7.18
2022-09-04T21:54:29.900Z,6.93
2022-09-04T22:02:37.029Z,6.85
2022-09-04T22:05:23.643Z,11.10
2022-09-04T22:13:40.091Z,7.68
2022-09-04T22:16:09.382Z,8.77
2022-09-04T22:21:25.690Z,7.00
2022-09-04T22:26:27.659Z,9.02
2022-09-04T22:31:24.829Z,7.85
2022-09-04T22:36:46.196Z,7.88
2022-09-04T22:42:10.067Z,9.05
2022-09-04T22:47:45.087Z,7.25
2022-09-04T22:53:09.104Z,9.40
2022-09-04T22:58:42.518Z,10.98
2022-09-04T23:03:45.819Z,8.82
2022-09-04T23:13:50.102Z,9.80
2022-09-04T23:14:41.184Z,8.90
2022-09-04T23:24:59.591Z,9.98
2022-09-04T23:26:50.902Z,9.30
2022-09-04T23:30:25.598Z,10.00
2022-09-04T23:35:33.157Z,7.10
2022-09-04T23:40:47.805Z,7.70
2022-09-04T23:46:01.157Z,8.30
2022-09-04T23:51:29.676Z,7.85
2022-09-04T23:56:46.356Z,7.95
